CheckWX is a tool to help pilots better visualize weather data.  It is not intended as a substitute for an official pre-flight weather briefing.

03:07:14 UTC

KHOT METAR
Memorial Field Airport
Hot Springs, Arkansas, USA
Current

14 mins ago

KHOT 290253Z AUTO 00000KT 8SM CLR 07/M02 A3027 RMK AO2 SLP249 T00671022 51009
Observed
Feb-29 @ 02:53 UTC
Visibility
8 SM
Flight Rules
VFR
Cloud Levels
  • Clear skies
Temperature
C / 45°F
Dewpoint
-2°C / 28°F
Humidity
53%
Altimeter
30.27" Hg
Pressure
1025.02 hPa
Previous

1 hour ago

KHOT 290153Z AUTO 00000KT 10SM CLR 09/M03 A3026 RMK AO2 SLP246 T00941028
Observed
Feb-29 @ 01:53 UTC
Visibility
10 SM
Flight Rules
VFR
Cloud Levels
  • Clear skies
Temperature
C / 48°F
Dewpoint
-3°C / 27°F
Humidity
43%
Altimeter
30.26" Hg
Pressure
1024.72 hPa
Previous

2 hours ago

KHOT 290053Z AUTO 27004KT 10SM CLR 12/M03 A3025 RMK AO2 SLP244 T01221033
Observed
Feb-29 @ 00:53 UTC
Wind
  • 270° at 4 KTS
Visibility
10 SM
Flight Rules
VFR
Cloud Levels
  • Clear skies
Temperature
12°C / 54°F
Dewpoint
-3°C / 27°F
Humidity
35%
Altimeter
30.25" Hg
Pressure
1024.42 hPa